PWSweather.com
Personal Weather Stations
Station Observations
PEISSEN1
PeissenbergDE

PeissenbergDE

Lat: 47.791845, Lon: 11.064121

Elevation: 1929

Station Type: Davis Vantage Pro 2

wetter-peissenberg.de

High Low Average
Temperature 65.7°F18.7°C 47.1°F8.4°C 56.3°F13.5°C
Dew Point 55.8°F13.2°C 44.9°F7.2°C 51.6°F10.9°C
Winds 4.7 mph 7.6 kmh Calm Calm 1.0 mph SSW1.6 kmh SSW
Wind Gusts 6.0 mph9.7 kmh -- 1.0 mph1.6 kmh
Humidity 95% 68% 85%
Pressure 30.05 in1017.6 mb 29.83 in1010.2 mb -
Precipitation 0.23 in5.8 mm - -
Hour Temp Dew Point Humidity Winds Wind Gusts Pressure Precip Precip Rate Daily Precip Total
12:00 AM 53.1°F11.7°C 50.5°F10.3°C 91% Calm Calm -- 30.05 in1017.6 mb 0.00 in0.0 mm 0.00 in0.0 mm 0.23 in5.8 mm
12:10 AM 53.1°F11.7°C 50.5°F10.3°C 91% Calm Calm -- 30.04 in1017.3 mb 0.00 in0.0 mm 0.00 in0.0 mm 0.23 in5.8 mm
12:20 AM 52.9°F11.6°C 50.3°F10.2°C 91% Calm Calm -- 30.05 in1017.6 mb 0.00 in0.0 mm 0.00 in0.0 mm 0.23 in5.8 mm
02:00 AM 51.8°F11.0°C 49.6°F9.8°C 92% Calm Calm -- 30.04 in1017.3 mb 0.00 in0.0 mm 0.00 in0.0 mm 0.00 in0.0 mm
02:10 AM 51.8°F11.0°C 49.6°F9.8°C 92% Calm Calm -- 30.04 in1017.3 mb 0.00 in0.0 mm 0.00 in0.0 mm 0.00 in0.0 mm
02:20 AM 51.6°F10.9°C 49.4°F9.7°C 92% Calm Calm -- 30.04 in1017.3 mb 0.00 in0.0 mm 0.00 in0.0 mm 0.00 in0.0 mm
04:00 AM 50.7°F10.4°C 48.8°F9.3°C 93% Calm Calm -- 30.02 in1016.6 mb 0.00 in0.0 mm 0.00 in0.0 mm 0.00 in0.0 mm
04:10 AM 50.7°F10.4°C 48.8°F9.3°C 93% Calm Calm -- 30.02 in1016.6 mb 0.00 in0.0 mm 0.00 in0.0 mm 0.00 in0.0 mm
04:20 AM 50.5°F10.3°C 48.6°F9.2°C 93% Calm Calm -- 30.01 in1016.3 mb 0.00 in0.0 mm 0.00 in0.0 mm 0.00 in0.0 mm
06:00 AM 47.7°F8.7°C 45.5°F7.5°C 92% Calm Calm -- 29.99 in1015.6 mb 0.00 in0.0 mm 0.00 in0.0 mm 0.00 in0.0 mm
06:10 AM 47.3°F8.5°C 45.1°F7.3°C 92% Calm Calm -- 29.98 in1015.2 mb 0.00 in0.0 mm 0.00 in0.0 mm 0.00 in0.0 mm
06:20 AM 47.1°F8.4°C 44.9°F7.2°C 92% Calm Calm -- 29.98 in1015.2 mb 0.00 in0.0 mm 0.00 in0.0 mm 0.00 in0.0 mm
08:00 AM 48.4°F9.1°C 46.7°F8.2°C 94% Calm Calm -- 30.00 in1015.9 mb 0.00 in0.0 mm 0.00 in0.0 mm 0.00 in0.0 mm
08:10 AM 49.1°F9.5°C 47.4°F8.6°C 94% Calm Calm -- 30.00 in1015.9 mb 0.00 in0.0 mm 0.00 in0.0 mm 0.00 in0.0 mm
08:20 AM 50.0°F10.0°C 48.6°F9.2°C 95% 1.9 mph SE3.1 kmh SE 3.0 mph4.8 kmh 30.00 in1015.9 mb 0.00 in0.0 mm 0.00 in0.0 mm 0.00 in0.0 mm
10:00 AM 57.0°F13.9°C 53.5°F11.9°C 88% 0.1 mph SE0.2 kmh SE 1.0 mph1.6 kmh 29.96 in1014.6 mb 0.00 in0.0 mm 0.00 in0.0 mm 0.00 in0.0 mm
10:10 AM 57.7°F14.3°C 53.3°F11.8°C 85% 1.3 mph NE2.1 kmh NE 3.0 mph4.8 kmh 29.96 in1014.6 mb 0.00 in0.0 mm 0.00 in0.0 mm 0.00 in0.0 mm
10:20 AM 58.5°F14.7°C 53.6°F12.0°C 84% Calm Calm -- 29.95 in1014.2 mb 0.00 in0.0 mm 0.00 in0.0 mm 0.00 in0.0 mm
12:00 PM 62.8°F17.1°C 54.0°F12.2°C 73% 2.3 mph N3.7 kmh N 4.0 mph6.4 kmh 29.89 in1012.2 mb 0.00 in0.0 mm 0.00 in0.0 mm 0.00 in0.0 mm
12:10 PM 62.8°F17.1°C 54.7°F12.6°C 75% 0.9 mph ESE1.4 kmh ESE 3.0 mph4.8 kmh 29.88 in1011.9 mb 0.00 in0.0 mm 0.00 in0.0 mm 0.00 in0.0 mm
12:20 PM 63.1°F17.3°C 54.3°F12.4°C 73% 4.7 mph N7.6 kmh N 6.0 mph9.7 kmh 29.88 in1011.9 mb 0.00 in0.0 mm 0.00 in0.0 mm 0.00 in0.0 mm
02:00 PM 65.7°F18.7°C 54.8°F12.7°C 68% 2.1 mph ENE3.4 kmh ENE 5.0 mph8.0 kmh 29.85 in1010.8 mb 0.00 in0.0 mm 0.00 in0.0 mm 0.00 in0.0 mm
02:10 PM 64.6°F18.1°C 54.6°F12.6°C 70% 1.7 mph N2.7 kmh N 3.0 mph4.8 kmh 29.85 in1010.8 mb 0.00 in0.0 mm 0.00 in0.0 mm 0.00 in0.0 mm
02:20 PM 65.1°F18.4°C 55.1°F12.8°C 70% 0.1 mph N0.2 kmh N 2.0 mph3.2 kmh 29.84 in1010.5 mb 0.00 in0.0 mm 0.00 in0.0 mm 0.00 in0.0 mm
04:00 PM 64.0°F17.8°C 54.4°F12.4°C 71% 1.0 mph N1.6 kmh N 2.0 mph3.2 kmh 29.84 in1010.5 mb 0.00 in0.0 mm 0.00 in0.0 mm 0.00 in0.0 mm
04:10 PM 63.9°F17.7°C 55.0°F12.8°C 73% 1.7 mph N2.7 kmh N 2.0 mph3.2 kmh 29.84 in1010.5 mb 0.00 in0.0 mm 0.00 in0.0 mm 0.00 in0.0 mm
04:20 PM 63.9°F17.7°C 55.8°F13.2°C 75% Calm Calm -- 29.84 in1010.5 mb 0.00 in0.0 mm 0.00 in0.0 mm 0.00 in0.0 mm
06:00 PM 62.1°F16.7°C 55.8°F13.2°C 80% Calm Calm -- 29.83 in1010.2 mb 0.00 in0.0 mm 0.00 in0.0 mm 0.00 in0.0 mm
06:10 PM 61.5°F16.4°C 55.6°F13.1°C 81% 0.8 mph NNW1.3 kmh NNW 2.0 mph3.2 kmh 29.83 in1010.2 mb 0.00 in0.0 mm 0.00 in0.0 mm 0.00 in0.0 mm
06:20 PM 61.2°F16.2°C 55.6°F13.1°C 82% 0.5 mph W0.8 kmh W 2.0 mph3.2 kmh 29.84 in1010.5 mb 0.00 in0.0 mm 0.00 in0.0 mm 0.00 in0.0 mm
08:00 PM 57.6°F14.2°C 51.8°F11.0°C 81% 1.0 mph SW1.6 kmh SW 3.0 mph4.8 kmh 29.86 in1011.2 mb 0.00 in0.0 mm 0.00 in0.0 mm 0.01 in0.3 mm
08:10 PM 57.4°F14.1°C 51.9°F11.1°C 82% Calm Calm -- 29.86 in1011.2 mb 0.00 in0.0 mm 0.00 in0.0 mm 0.01 in0.3 mm
08:20 PM 57.0°F13.9°C 52.2°F11.2°C 84% Calm Calm -- 29.86 in1011.2 mb 0.00 in0.0 mm 0.00 in0.0 mm 0.01 in0.3 mm
10:00 PM 55.8°F13.2°C 52.9°F11.6°C 90% Calm Calm -- 29.85 in1010.8 mb 0.00 in0.0 mm 0.00 in0.0 mm 0.02 in0.5 mm
10:10 PM 55.6°F13.1°C 52.7°F11.5°C 90% Calm Calm -- 29.84 in1010.5 mb 0.00 in0.0 mm 0.00 in0.0 mm 0.02 in0.5 mm
10:20 PM 55.4°F13.0°C 52.5°F11.4°C 90% Calm Calm -- 29.85 in1010.8 mb 0.00 in0.0 mm 0.00 in0.0 mm 0.02 in0.5 mm